createdAt,value
2017-08-15T00:02:23.925Z,68.12
2017-08-15T00:04:49.988Z,67.19
2017-08-15T00:07:16.083Z,66.72
2017-08-15T00:09:42.150Z,66.50
2017-08-15T00:12:08.186Z,66.76
2017-08-15T00:14:34.228Z,67.02
2017-08-15T00:17:00.311Z,66.58
2017-08-15T00:19:26.383Z,66.86
2017-08-15T00:21:52.452Z,66.91
2017-08-15T00:24:19.230Z,67.56
2017-08-15T00:26:45.306Z,67.58
2017-08-15T00:29:11.373Z,67.84
2017-08-15T00:31:37.472Z,67.59
2017-08-15T00:34:04.304Z,67.87
2017-08-15T00:36:31.105Z,68.05
2017-08-15T00:38:57.170Z,67.64
2017-08-15T00:41:23.965Z,68.14
2017-08-15T00:43:50.044Z,68.35
2017-08-15T00:46:16.889Z,68.44
2017-08-15T00:48:43.686Z,68.79
2017-08-15T00:51:09.722Z,68.92
2017-08-15T00:53:36.150Z,69.06
2017-08-15T00:56:02.187Z,69.45
2017-08-15T00:58:28.254Z,69.59
2017-08-15T01:00:54.353Z,69.57
2017-08-15T01:03:20.404Z,69.43
2017-08-15T01:05:46.504Z,69.30
2017-08-15T01:08:13.309Z,69.53
2017-08-15T01:10:39.369Z,69.55
2017-08-15T01:13:06.193Z,69.40
2017-08-15T01:15:32.309Z,69.45
2017-08-15T01:18:05.451Z,69.47
2017-08-15T01:20:31.548Z,69.79
2017-08-15T01:22:57.601Z,69.87
2017-08-15T01:25:24.411Z,70.27
2017-08-15T01:27:51.518Z,70.13
2017-08-15T01:30:17.655Z,70.34
2017-08-15T01:32:43.724Z,70.43
2017-08-15T01:35:09.801Z,70.62
2017-08-15T01:37:47.149Z,70.75
2017-08-15T01:40:13.302Z,70.96
2017-08-15T01:42:39.357Z,71.02
2017-08-15T01:45:05.408Z,70.96
2017-08-15T01:47:31.508Z,71.01
2017-08-15T01:49:57.602Z,71.18
2017-08-15T01:52:23.695Z,71.24
2017-08-15T01:54:50.502Z,71.12
2017-08-15T01:57:16.556Z,70.97
2017-08-15T01:59:42.614Z,70.82
2017-08-15T02:02:08.674Z,71.02
2017-08-15T02:04:34.736Z,71.13
2017-08-15T02:07:01.543Z,71.27
2017-08-15T02:09:27.593Z,71.28
2017-08-15T02:11:53.686Z,71.30
2017-08-15T02:14:19.746Z,71.66
2017-08-15T02:16:45.903Z,71.86
2017-08-15T02:19:11.981Z,72.01
2017-08-15T02:21:38.036Z,71.81
2017-08-15T02:24:04.860Z,71.96
2017-08-15T02:26:30.952Z,71.86
2017-08-15T02:28:57.009Z,71.74
2017-08-15T02:31:23.066Z,71.80
2017-08-15T02:33:49.869Z,71.75
2017-08-15T02:36:15.923Z,71.98
2017-08-15T02:38:43.523Z,72.06
2017-08-15T02:41:09.586Z,72.44
2017-08-15T02:43:35.680Z,72.49
2017-08-15T02:46:01.725Z,72.74
2017-08-15T02:48:27.848Z,73.00
2017-08-15T02:50:53.882Z,73.11
2017-08-15T02:53:19.949Z,73.11
2017-08-15T02:55:46.046Z,73.35
2017-08-15T02:58:12.075Z,73.84
2017-08-15T03:00:39.651Z,73.83
2017-08-15T03:03:06.505Z,73.98
2017-08-15T03:05:32.564Z,73.90
2017-08-15T03:07:58.879Z,74.11
2017-08-15T03:10:25.023Z,74.07
2017-08-15T03:12:51.121Z,73.87
2017-08-15T03:15:17.175Z,73.73
2017-08-15T03:17:43.267Z,73.52
2017-08-15T03:20:09.307Z,73.64
2017-08-15T03:22:35.433Z,73.57
2017-08-15T03:25:01.527Z,73.60
2017-08-15T03:27:28.353Z,73.55
2017-08-15T03:29:54.443Z,73.73
2017-08-15T03:32:20.539Z,73.71
2017-08-15T03:34:46.622Z,73.79
2017-08-15T03:37:12.707Z,73.96
2017-08-15T03:39:38.749Z,74.25
2017-08-15T03:42:04.828Z,74.39
2017-08-15T03:44:30.919Z,74.53
2017-08-15T03:46:57.011Z,74.71
2017-08-15T03:49:23.067Z,74.44
2017-08-15T03:51:49.139Z,74.18
2017-08-15T03:54:15.217Z,74.30
2017-08-15T03:56:41.286Z,74.18
2017-08-15T03:59:07.336Z,74.46
2017-08-15T04:01:33.425Z,74.53
2017-08-15T04:03:59.548Z,74.40
2017-08-15T04:06:26.341Z,74.25
2017-08-15T04:08:52.440Z,74.09
2017-08-15T04:11:18.521Z,73.84
2017-08-15T04:13:44.585Z,73.46
2017-08-15T04:16:10.668Z,73.25
2017-08-15T04:18:36.759Z,72.87
2017-08-15T04:21:02.837Z,72.62
2017-08-15T04:23:29.644Z,72.36
2017-08-15T04:25:55.752Z,72.35
2017-08-15T04:28:21.861Z,72.16
2017-08-15T04:30:47.942Z,71.84
2017-08-15T04:33:13.991Z,71.73
2017-08-15T04:35:40.811Z,71.74
2017-08-15T04:38:06.878Z,71.60
2017-08-15T04:40:32.945Z,71.48
2017-08-15T04:42:59.055Z,71.25
2017-08-15T04:45:25.121Z,71.29
2017-08-15T04:47:51.931Z,71.27
2017-08-15T04:50:18.051Z,70.89
2017-08-15T04:52:44.154Z,70.92
2017-08-15T04:55:10.251Z,70.65
2017-08-15T04:57:36.357Z,70.71
2017-08-15T05:00:02.442Z,69.92
2017-08-15T05:02:28.547Z,69.56
2017-08-15T05:04:54.628Z,69.37
2017-08-15T05:07:20.670Z,68.93
2017-08-15T05:09:47.494Z,68.52
2017-08-15T05:12:13.590Z,68.60
2017-08-15T05:14:39.637Z,68.49
2017-08-15T05:17:05.704Z,67.64
2017-08-15T05:19:31.796Z,67.13
2017-08-15T05:21:57.891Z,66.64
2017-08-15T05:24:23.988Z,65.81
2017-08-15T05:26:50.054Z,65.14
2017-08-15T05:29:16.355Z,64.61
2017-08-15T05:31:42.454Z,63.93
2017-08-15T05:34:09.278Z,63.76
2017-08-15T05:36:35.340Z,63.55
2017-08-15T05:39:01.816Z,62.97
2017-08-15T05:41:27.902Z,62.93
2017-08-15T05:43:53.974Z,62.94
2017-08-15T05:46:20.052Z,62.81
2017-08-15T05:48:46.117Z,61.90
2017-08-15T05:51:12.181Z,61.23
2017-08-15T05:53:38.284Z,60.79
2017-08-15T05:56:04.530Z,60.63
2017-08-15T05:58:31.370Z,59.99
2017-08-15T06:00:58.184Z,59.64
2017-08-15T06:03:24.276Z,59.17
2017-08-15T06:05:50.336Z,58.68
2017-08-15T06:08:16.398Z,58.13
2017-08-15T06:10:42.490Z,57.95
2017-08-15T06:13:08.559Z,57.83
2017-08-15T06:15:34.650Z,57.63
2017-08-15T06:18:00.718Z,57.74
2017-08-15T06:20:26.779Z,57.22
2017-08-15T06:22:52.888Z,56.33
2017-08-15T06:25:18.951Z,55.74
2017-08-15T06:27:45.779Z,55.02
2017-08-15T06:30:11.880Z,54.66
2017-08-15T06:32:37.937Z,54.24
2017-08-15T06:35:03.982Z,53.78
2017-08-15T06:37:30.811Z,53.36
2017-08-15T06:39:56.884Z,52.77
2017-08-15T06:42:22.962Z,52.40
2017-08-15T06:44:49.039Z,52.23
2017-08-15T06:47:15.076Z,52.13
2017-08-15T06:49:41.151Z,51.83
2017-08-15T06:52:07.963Z,51.34
2017-08-15T06:54:34.034Z,51.51
2017-08-15T06:57:00.092Z,51.33
2017-08-15T06:59:26.195Z,50.60
2017-08-15T07:01:52.242Z,50.54
2017-08-15T07:04:18.366Z,50.79
2017-08-15T07:06:44.437Z,50.54
2017-08-15T07:09:10.476Z,50.13
2017-08-15T07:11:37.279Z,49.70
2017-08-15T07:14:03.339Z,49.67
2017-08-15T07:16:30.147Z,48.98
2017-08-15T07:18:56.233Z,49.17
2017-08-15T07:21:22.291Z,48.06
2017-08-15T07:23:48.358Z,48.10
2017-08-15T07:26:15.131Z,47.79
2017-08-15T07:28:41.215Z,47.40
2017-08-15T07:31:07.310Z,47.42
2017-08-15T07:33:33.353Z,47.01
2017-08-15T07:35:59.405Z,47.22
2017-08-15T07:38:26.208Z,47.31
2017-08-15T07:40:52.311Z,46.66
2017-08-15T07:43:18.369Z,46.96
2017-08-15T07:45:44.445Z,46.52
2017-08-15T07:48:10.514Z,46.31
2017-08-15T07:50:36.580Z,47.11
2017-08-15T07:53:02.640Z,45.61
2017-08-15T07:55:28.669Z,45.46
2017-08-15T07:57:54.739Z,44.77
2017-08-15T08:00:21.555Z,43.90
2017-08-15T08:02:47.625Z,44.44
2017-08-15T08:05:13.689Z,44.02
2017-08-15T08:07:39.766Z,43.52
2017-08-15T08:10:06.643Z,43.54
2017-08-15T08:12:32.700Z,43.52
2017-08-15T08:14:58.761Z,43.11
2017-08-15T08:17:25.550Z,42.96
2017-08-15T08:19:51.649Z,42.71
2017-08-15T08:22:17.684Z,43.01
2017-08-15T08:24:43.984Z,41.96
2017-08-15T08:27:10.799Z,42.17
2017-08-15T08:29:36.877Z,41.86
2017-08-15T08:32:02.974Z,41.08
2017-08-15T08:34:29.914Z,40.01
2017-08-15T08:36:56.741Z,39.96
2017-08-15T08:39:22.835Z,39.76
2017-08-15T08:41:48.880Z,39.33
2017-08-15T08:44:14.924Z,38.47
2017-08-15T08:46:41.776Z,38.29
2017-08-15T08:49:08.575Z,37.91
2017-08-15T08:51:34.635Z,38.17
2017-08-15T08:54:00.718Z,37.23
2017-08-15T08:56:26.806Z,36.87
2017-08-15T08:58:53.585Z,36.66
2017-08-15T09:01:26.743Z,36.37
2017-08-15T09:03:52.803Z,36.19
2017-08-15T09:06:18.887Z,35.58
2017-08-15T09:08:44.964Z,35.75
2017-08-15T09:11:11.031Z,35.79
2017-08-15T09:13:37.901Z,35.27
2017-08-15T09:16:03.964Z,35.32
2017-08-15T09:18:30.035Z,35.01
2017-08-15T09:20:56.113Z,34.59
2017-08-15T09:23:22.153Z,33.85
2017-08-15T09:25:48.249Z,32.75
2017-08-15T09:28:14.320Z,32.65
2017-08-15T09:30:41.122Z,32.15
2017-08-15T09:33:07.854Z,31.80
2017-08-15T09:35:34.800Z,31.85
2017-08-15T09:38:00.873Z,31.37
2017-08-15T09:40:27.711Z,31.23
2017-08-15T09:42:54.519Z,31.35
2017-08-15T09:45:20.614Z,30.40
2017-08-15T09:47:46.678Z,29.80
2017-08-15T09:50:12.776Z,29.53
2017-08-15T09:52:38.841Z,28.28
2017-08-15T09:55:04.972Z,28.58
2017-08-15T09:57:31.069Z,28.27
2017-08-15T09:59:57.129Z,28.51
2017-08-15T10:02:23.976Z,29.11
2017-08-15T10:04:50.788Z,29.42
2017-08-15T10:07:16.873Z,29.75
2017-08-15T10:09:42.968Z,28.67
2017-08-15T10:12:09.818Z,28.21
2017-08-15T10:14:36.678Z,27.88
2017-08-15T10:17:02.733Z,28.69
2017-08-15T10:19:28.793Z,28.62
2017-08-15T10:21:54.888Z,28.57
2017-08-15T10:24:20.960Z,29.11
2017-08-15T10:26:47.774Z,29.46
2017-08-15T10:29:13.861Z,29.68
2017-08-15T10:31:39.919Z,29.37
2017-08-15T10:34:06.013Z,29.24
2017-08-15T10:36:32.070Z,29.76
2017-08-15T10:38:58.143Z,29.56
2017-08-15T10:41:24.293Z,29.62
2017-08-15T10:43:50.353Z,30.33
2017-08-15T10:46:16.453Z,31.17
2017-08-15T10:48:42.577Z,30.66
2017-08-15T10:51:08.675Z,30.83
2017-08-15T10:53:34.733Z,30.43
2017-08-15T10:56:00.794Z,30.85
2017-08-15T10:58:26.849Z,31.45
2017-08-15T11:00:52.921Z,30.36
2017-08-15T11:03:19.007Z,31.47
2017-08-15T11:05:45.067Z,31.67
2017-08-15T11:08:11.133Z,32.09
2017-08-15T11:10:37.243Z,31.50
2017-08-15T11:13:03.314Z,31.78
2017-08-15T11:15:29.366Z,31.61
2017-08-15T11:17:55.453Z,31.81
2017-08-15T11:20:21.550Z,31.51
2017-08-15T11:22:47.607Z,31.52
2017-08-15T11:25:13.679Z,30.41
2017-08-15T11:27:39.756Z,30.89
2017-08-15T11:30:05.910Z,30.46
2017-08-15T11:32:32.045Z,29.22
2017-08-15T11:34:58.107Z,29.92
2017-08-15T11:37:24.163Z,29.79
2017-08-15T11:39:51.082Z,29.71
2017-08-15T11:42:17.911Z,29.38
2017-08-15T11:44:43.985Z,28.92
2017-08-15T11:47:10.094Z,27.06
2017-08-15T11:49:36.177Z,25.31
2017-08-15T11:52:02.247Z,24.51
2017-08-15T11:54:28.301Z,24.27
2017-08-15T11:56:54.364Z,24.30
2017-08-15T11:59:20.433Z,22.06
2017-08-15T12:01:46.527Z,19.40
2017-08-15T12:04:13.352Z,16.85
2017-08-15T12:06:39.423Z,14.75
2017-08-15T12:09:05.552Z,12.87
2017-08-15T12:11:31.628Z,12.82
2017-08-15T12:13:57.726Z,11.03
2017-08-15T12:16:23.772Z,9.81
2017-08-15T12:18:49.855Z,11.27
2017-08-15T12:21:15.917Z,13.37
2017-08-15T12:23:41.998Z,13.84
2017-08-15T12:26:08.073Z,14.42
2017-08-15T12:28:34.450Z,16.38
2017-08-15T12:31:00.651Z,17.51
2017-08-15T12:33:26.801Z,15.19
2017-08-15T12:35:53.605Z,11.97
2017-08-15T12:38:19.690Z,12.42
2017-08-15T12:40:45.746Z,12.50
2017-08-15T12:43:11.874Z,11.17
2017-08-15T12:45:37.999Z,11.51
2017-08-15T12:48:04.071Z,12.78
2017-08-15T12:50:30.126Z,11.75
2017-08-15T12:52:56.176Z,10.81
2017-08-15T12:55:22.258Z,9.62
2017-08-15T12:57:48.340Z,9.12
2017-08-15T13:00:14.424Z,9.42
2017-08-15T13:02:40.622Z,8.44
2017-08-15T13:05:07.448Z,7.96
2017-08-15T13:07:33.506Z,7.39
2017-08-15T13:09:59.630Z,7.09
2017-08-15T13:12:25.706Z,7.42
2017-08-15T13:14:51.770Z,7.46
2017-08-15T13:17:17.845Z,7.07
2017-08-15T13:19:43.944Z,6.73
2017-08-15T13:22:10.102Z,6.80
2017-08-15T13:24:36.192Z,7.38
2017-08-15T13:27:02.295Z,7.22
2017-08-15T13:29:29.077Z,8.67
2017-08-15T13:31:55.146Z,10.09
2017-08-15T13:34:21.344Z,8.93
2017-08-15T13:36:47.471Z,8.81
2017-08-15T13:39:13.542Z,8.51
2017-08-15T13:41:39.630Z,7.65
2017-08-15T13:44:05.692Z,7.87
2017-08-15T13:46:32.526Z,6.83
2017-08-15T13:48:59.392Z,6.39
2017-08-15T13:51:25.437Z,6.16
2017-08-15T13:53:51.554Z,6.24
2017-08-15T13:56:17.665Z,6.40
2017-08-15T13:58:43.727Z,6.45
2017-08-15T14:01:09.832Z,6.40
2017-08-15T14:03:35.898Z,7.77
2017-08-15T14:06:01.973Z,7.92
2017-08-15T14:08:28.072Z,7.36
2017-08-15T14:10:54.922Z,7.06
2017-08-15T14:13:21.758Z,6.79
2017-08-15T14:15:48.593Z,7.52
2017-08-15T14:18:14.689Z,7.17
2017-08-15T14:20:40.736Z,7.19
2017-08-15T14:23:06.894Z,8.41
2017-08-15T14:25:33.790Z,10.81
2017-08-15T14:27:59.911Z,13.66
2017-08-15T14:30:25.991Z,14.64
2017-08-15T14:32:52.144Z,15.07
2017-08-15T14:35:18.251Z,16.71
2017-08-15T14:37:44.337Z,17.82
2017-08-15T14:40:10.444Z,18.33
2017-08-15T14:42:36.543Z,19.29
2017-08-15T14:45:02.683Z,20.39
2017-08-15T14:47:28.826Z,18.27
2017-08-15T14:49:54.901Z,19.09
2017-08-15T14:52:20.993Z,19.03
2017-08-15T14:54:47.120Z,17.62
2017-08-15T14:57:13.229Z,16.04
2017-08-15T14:59:39.327Z,13.83
2017-08-15T15:02:05.511Z,12.58
2017-08-15T15:04:32.377Z,11.36
2017-08-15T15:06:58.465Z,11.28
2017-08-15T15:09:24.589Z,10.73
2017-08-15T15:11:50.751Z,10.58
2017-08-15T15:14:17.591Z,9.97
2017-08-15T15:16:44.517Z,9.36
2017-08-15T15:19:10.638Z,9.00
2017-08-15T15:21:36.746Z,9.96
2017-08-15T15:24:02.880Z,11.17
2017-08-15T15:26:29.008Z,11.13
2017-08-15T15:28:55.139Z,11.48
2017-08-15T15:31:23.544Z,11.70
2017-08-15T15:33:49.738Z,11.62
2017-08-15T15:36:15.825Z,10.18
2017-08-15T15:38:41.943Z,9.79
2017-08-15T15:41:08.126Z,9.51
2017-08-15T15:43:34.327Z,9.55
2017-08-15T15:46:00.452Z,9.61
2017-08-15T15:48:26.619Z,9.16
2017-08-15T15:50:52.812Z,9.74
2017-08-15T15:53:18.966Z,9.51
2017-08-15T15:55:45.156Z,10.86
2017-08-15T15:58:11.308Z,12.35
2017-08-15T16:00:37.412Z,12.81
2017-08-15T16:03:03.532Z,13.02
2017-08-15T16:05:29.686Z,13.01
2017-08-15T16:07:56.662Z,13.49
2017-08-15T16:10:23.687Z,14.11
2017-08-15T16:12:49.858Z,15.25
2017-08-15T16:15:15.958Z,15.07
2017-08-15T16:17:42.098Z,14.55
2017-08-15T16:20:08.914Z,15.30
2017-08-15T16:22:34.972Z,15.95
2017-08-15T16:25:01.824Z,15.55
2017-08-15T16:27:27.906Z,15.01
2017-08-15T16:29:53.969Z,14.45
2017-08-15T16:32:20.088Z,14.07
2017-08-15T16:34:46.982Z,14.30
2017-08-15T16:37:13.168Z,15.07
2017-08-15T16:39:39.274Z,15.82
2017-08-15T16:42:06.305Z,16.18
2017-08-15T16:44:32.599Z,17.79
2017-08-15T16:46:58.775Z,18.76
2017-08-15T16:49:26.263Z,19.59
2017-08-15T16:51:52.345Z,20.03
2017-08-15T16:54:18.548Z,20.71
2017-08-15T16:56:44.696Z,21.43
2017-08-15T16:59:10.903Z,22.01
2017-08-15T17:01:37.253Z,22.74
2017-08-15T17:04:03.390Z,23.15
2017-08-15T17:06:29.591Z,24.15
2017-08-15T17:08:56.343Z,25.64
2017-08-15T17:11:22.481Z,27.06
2017-08-15T17:13:48.609Z,28.16
2017-08-15T17:16:14.714Z,28.52
2017-08-15T17:18:40.846Z,29.75
2017-08-15T17:21:06.996Z,30.32
2017-08-15T17:23:33.352Z,31.03
2017-08-15T17:25:59.527Z,31.54
2017-08-15T17:28:25.590Z,32.33
2017-08-15T17:30:52.469Z,32.71
2017-08-15T17:33:18.579Z,33.25
2017-08-15T17:35:44.638Z,33.81
2017-08-15T17:38:10.704Z,34.29
2017-08-15T17:40:36.786Z,34.63
2017-08-15T17:43:02.840Z,34.86
2017-08-15T17:45:29.057Z,35.38
2017-08-15T17:47:56.136Z,35.60
2017-08-15T17:50:22.194Z,36.07
2017-08-15T17:52:48.288Z,36.76
2017-08-15T17:55:15.128Z,37.11
2017-08-15T17:57:42.198Z,37.49
2017-08-15T18:00:08.314Z,37.84
2017-08-15T18:02:35.171Z,38.29
2017-08-15T18:05:01.266Z,38.88
2017-08-15T18:07:27.380Z,39.19
2017-08-15T18:09:53.470Z,39.55
2017-08-15T18:12:19.725Z,39.76
2017-08-15T18:14:45.793Z,39.90
2017-08-15T18:17:12.603Z,40.12
2017-08-15T18:19:38.733Z,40.30
2017-08-15T18:22:04.806Z,40.12
2017-08-15T18:24:30.863Z,40.38
2017-08-15T18:26:56.976Z,40.88
2017-08-15T18:29:23.059Z,41.24
2017-08-15T18:31:49.863Z,42.36
2017-08-15T18:34:15.941Z,42.38
2017-08-15T18:36:42.002Z,42.51
2017-08-15T18:39:08.088Z,43.34
2017-08-15T18:41:34.241Z,43.34
2017-08-15T18:44:00.379Z,44.19
2017-08-15T18:46:26.463Z,44.01
2017-08-15T18:48:53.363Z,44.04
2017-08-15T18:51:19.444Z,44.02
2017-08-15T18:53:45.513Z,44.52
2017-08-15T18:56:11.607Z,45.28
2017-08-15T18:58:37.708Z,46.63
2017-08-15T19:01:04.683Z,47.04
2017-08-15T19:03:30.789Z,47.32
2017-08-15T19:05:57.605Z,46.79
2017-08-15T19:08:23.710Z,47.23
2017-08-15T19:10:49.768Z,47.79
2017-08-15T19:13:16.609Z,48.32
2017-08-15T19:15:43.496Z,48.25
2017-08-15T19:18:10.333Z,49.00
2017-08-15T19:20:36.616Z,48.83
2017-08-15T19:23:02.952Z,49.12
2017-08-15T19:25:29.004Z,49.30
2017-08-15T19:27:55.088Z,49.73
2017-08-15T19:30:21.187Z,50.00
2017-08-15T19:32:47.285Z,49.78
2017-08-15T19:35:13.419Z,49.07
2017-08-15T19:37:39.647Z,48.40
2017-08-15T19:40:05.833Z,48.48
2017-08-15T19:42:32.154Z,48.43
2017-08-15T19:44:58.331Z,48.54
2017-08-15T19:47:24.419Z,48.35
2017-08-15T19:49:50.534Z,49.39
2017-08-15T19:52:16.721Z,49.32
2017-08-15T19:54:42.832Z,49.42
2017-08-15T19:57:08.938Z,49.14
2017-08-15T19:59:35.736Z,48.87
2017-08-15T20:02:01.824Z,48.72
2017-08-15T20:04:27.926Z,49.05
2017-08-15T20:06:55.646Z,49.03
2017-08-15T20:09:21.738Z,49.15
2017-08-15T20:11:47.830Z,49.01
2017-08-15T20:14:13.993Z,49.88
2017-08-15T20:16:40.141Z,49.13
2017-08-15T20:19:06.425Z,49.26
2017-08-15T20:21:33.343Z,49.87
2017-08-15T20:23:59.499Z,49.78
2017-08-15T20:26:26.454Z,50.37
2017-08-15T20:28:53.391Z,51.41
2017-08-15T20:31:20.269Z,51.78
2017-08-15T20:33:46.371Z,51.97
2017-08-15T20:36:13.219Z,52.51
2017-08-15T20:38:39.324Z,52.18
2017-08-15T20:41:06.122Z,52.34
2017-08-15T20:43:32.191Z,53.21
2017-08-15T20:45:58.273Z,53.66
2017-08-15T20:48:24.371Z,54.08
2017-08-15T20:50:50.529Z,54.70
2017-08-15T20:53:16.685Z,54.31
2017-08-15T20:55:42.779Z,54.88
2017-08-15T20:58:08.862Z,55.21
2017-08-15T21:00:35.685Z,55.09
2017-08-15T21:03:01.765Z,55.54
2017-08-15T21:05:27.895Z,55.77
2017-08-15T21:07:53.961Z,55.83
2017-08-15T21:10:20.079Z,56.14
2017-08-15T21:12:46.156Z,55.76
2017-08-15T21:15:12.227Z,56.01
2017-08-15T21:17:38.379Z,55.99
2017-08-15T21:20:05.217Z,55.98
2017-08-15T21:22:32.038Z,56.45
2017-08-15T21:24:58.170Z,56.74
2017-08-15T21:27:24.239Z,56.18
2017-08-15T21:29:50.316Z,55.56
2017-08-15T21:32:16.695Z,55.97
2017-08-15T21:34:43.782Z,54.99
2017-08-15T21:37:09.887Z,55.74
2017-08-15T21:39:35.978Z,56.02
2017-08-15T21:42:02.808Z,56.04
2017-08-15T21:44:28.886Z,57.01
2017-08-15T21:46:54.969Z,56.26
2017-08-15T21:49:21.801Z,56.20
2017-08-15T21:51:47.904Z,55.99
2017-08-15T21:54:13.975Z,56.54
2017-08-15T21:56:40.073Z,56.06
2017-08-15T21:59:06.189Z,55.82
2017-08-15T22:01:38.400Z,55.94
2017-08-15T22:04:04.476Z,56.53
2017-08-15T22:06:30.559Z,56.77
2017-08-15T22:08:56.648Z,57.27
2017-08-15T22:11:22.764Z,57.12
2017-08-15T22:13:48.833Z,57.17
2017-08-15T22:16:14.912Z,57.30
2017-08-15T22:18:41.001Z,57.24
2017-08-15T22:21:08.006Z,57.11
2017-08-15T22:23:34.835Z,56.66
2017-08-15T22:26:00.941Z,56.31
2017-08-15T22:28:27.001Z,55.79
2017-08-15T22:30:53.844Z,55.25
2017-08-15T22:33:20.689Z,55.44
2017-08-15T22:35:47.599Z,55.03
2017-08-15T22:38:13.675Z,55.33
2017-08-15T22:40:39.769Z,55.74
2017-08-15T22:43:05.849Z,56.26
2017-08-15T22:45:31.961Z,56.19
2017-08-15T22:47:58.059Z,55.92
2017-08-15T22:50:24.926Z,57.12
2017-08-15T22:52:51.025Z,55.57
2017-08-15T22:55:17.842Z,54.17
2017-08-15T22:57:43.897Z,53.22
2017-08-15T23:00:10.734Z,52.59
2017-08-15T23:02:37.569Z,52.75
2017-08-15T23:05:03.659Z,52.62
2017-08-15T23:07:29.845Z,52.38
2017-08-15T23:09:56.670Z,52.47
2017-08-15T23:12:22.762Z,52.69
2017-08-15T23:14:48.844Z,52.96
2017-08-15T23:17:14.936Z,53.30
2017-08-15T23:19:41.062Z,53.73
2017-08-15T23:22:07.100Z,54.02
2017-08-15T23:24:34.003Z,54.07
2017-08-15T23:27:01.102Z,53.99
2017-08-15T23:29:27.957Z,53.24
2017-08-15T23:31:54.049Z,53.41
2017-08-15T23:34:20.141Z,53.57
2017-08-15T23:36:46.217Z,53.65
2017-08-15T23:39:13.070Z,53.65
2017-08-15T23:41:39.900Z,53.59
2017-08-15T23:44:06.686Z,53.40
2017-08-15T23:46:32.774Z,53.66
2017-08-15T23:48:59.568Z,53.86
2017-08-15T23:51:25.623Z,54.07
2017-08-15T23:53:51.697Z,54.78
2017-08-15T23:56:17.758Z,54.69
2017-08-15T23:58:43.820Z,55.50
